| time (UTC) | temp F | wind direction | speed MPH | gust MPH | rain 1hr in | rain 24hr in | rain mn in | humidity % | barometer mb |
| 20260510132238 | 56 | 40 | 5.0 | 7.0 | 0.07 | 0.00 | 0.08 | 78 | 1022.0 |
| 20260510131737 | 56 | 37 | 4.0 | 5.0 | 0.06 | 0.00 | 0.07 | 79 | 1022.0 |
| 20260510131237 | 56 | 35 | 3.0 | 6.0 | 0.19 | 0.00 | 0.07 | 80 | 1022.0 |
| 20260510130737 | 56 | 45 | 4.0 | 5.0 | 0.04 | 0.00 | 0.06 | 77 | 1022.0 |
| 20260510130237 | 56 | 35 | 3.0 | 4.0 | 0.12 | 0.00 | 0.06 | 77 | 1022.0 |
| 20260510125738 | 57 | 27 | 3.0 | 5.0 | 0.22 | 0.00 | 0.05 | 74 | 1022.0 |
| 20260510125237 | 57 | 52 | 6.0 | 7.0 | 0.12 | 0.00 | 0.04 | 71 | 1021.0 |
| 20260510124737 | 58 | 62 | 3.0 | 10.0 | 0.12 | 0.00 | 0.03 | 68 | 1021.0 |
| 20260510124239 | 59 | 65 | 8.0 | 13.0 | 0.09 | 0.00 | 0.02 | 65 | 1021.0 |
| 20260510123737 | 59 | 50 | 6.0 | 14.0 | 0.07 | 0.00 | 0.01 | 65 | 1021.0 |
| 20260510123237 | 60 | 32 | 6.0 | 18.0 | 0.04 | 0.00 | 0.01 | 61 | 1021.0 |
| 20260510122738 | 60 | 45 | 6.0 | 8.0 | 0.02 | 0.00 | 0.00 | 60 | 1020.0 |
| 20260510122237 | 60 | 47 | 6.0 | 8.0 | 0.00 | 0.00 | 0.00 | 61 | 1020.0 |
| 20260510121737 | 60 | 48 | 8.0 | 12.0 | 0.00 | 0.00 | 0.00 | 60 | 1019.0 |
| 20260510121238 | 60 | 45 | 9.0 | 14.0 | 0.00 | 0.00 | 0.00 | 60 | 1019.0 |
| 20260510120737 | 60 | 42 | 10.0 | 22.0 | 0.00 | 0.00 | 0.00 | 59 | 1019.0 |
| 20260510120238 | 60 | 42 | 10.0 | 14.0 | 0.00 | 0.00 | 0.00 | 60 | 1019.0 |
| 20260510115738 | 60 | 42 | 15.0 | 21.0 | 0.00 | 0.00 | 0.00 | 61 | 1018.0 |
| 20260510115237 | 60 | 42 | 13.0 | 19.0 | 0.00 | 0.00 | 0.00 | 62 | 1018.0 |
| 20260510114737 | 60 | 41 | 12.0 | 20.0 | 0.00 | 0.00 | 0.00 | 62 | 1018.0 |
| 20260510114238 | 60 | 40 | 11.0 | 18.0 | 0.00 | 0.00 | 0.00 | 62 | 1018.0 |
| 20260510113737 | 60 | 49 | 9.0 | 19.0 | 0.00 | 0.00 | 0.00 | 62 | 1017.0 |
| 20260510113237 | 60 | 40 | 10.0 | 23.0 | 0.00 | 0.00 | 0.00 | 63 | 1017.0 |
| 20260510112738 | 59 | 36 | 11.0 | 13.0 | 0.00 | 0.00 | 0.00 | 64 | 1017.0 |
| 20260510112237 | 59 | 41 | 9.0 | 14.0 | 0.00 | 0.00 | 0.00 | 65 | 1017.0 |
| 20260510111238 | 59 | 40 | 9.0 | 14.0 | 0.00 | 0.00 | 0.00 | 66 | 1017.0 |
| 20260510110737 | 59 | 41 | 11.0 | 18.0 | 0.00 | 0.00 | 0.00 | 66 | 1017.0 |
| 20260510110237 | 60 | 33 | 7.0 | 10.0 | 0.00 | 0.00 | 0.00 | 66 | 1017.0 |
| 20260510105737 | 60 | 30 | 10.0 | 17.0 | 0.00 | 0.00 | 0.00 | 66 | 1017.0 |
| 20260510105237 | 60 | 27 | 8.0 | 10.0 | 0.00 | 0.00 | 0.00 | 65 | 1017.0 |
| 20260510104737 | 60 | 39 | 5.0 | 8.0 | 0.00 | 0.00 | 0.00 | 65 | 1017.0 |
| 20260510104237 | 60 | 41 | 7.0 | 12.0 | 0.00 | 0.00 | 0.00 | 64 | 1017.0 |
| 20260510103737 | 60 | 38 | 10.0 | 13.0 | 0.00 | 0.00 | 0.00 | 64 | 1017.0 |
| 20260510103238 | 61 | 41 | 9.0 | 10.0 | 0.00 | 0.00 | 0.00 | 64 | 1016.0 |
| 20260510102738 | 61 | 39 | 9.0 | 11.0 | 0.00 | 0.00 | 0.00 | 64 | 1016.0 |
| 20260510102237 | 61 | 37 | 8.0 | 10.0 | 0.00 | 0.00 | 0.00 | 64 | 1016.0 |
| 20260510101737 | 61 | 40 | 7.0 | 9.0 | 0.00 | 0.00 | 0.00 | 63 | 1016.0 |
| 20260510101237 | 62 | 35 | 7.0 | 11.0 | 0.00 | 0.00 | 0.00 | 62 | 1016.0 |
| 20260510100737 | 62 | 36 | 9.0 | 11.0 | 0.00 | 0.00 | 0.00 | 61 | 1016.0 |
| 20260510100237 | 62 | 35 | 8.0 | 10.0 | 0.00 | 0.00 | 0.00 | 61 | 1016.0 |
| 20260510095737 | 62 | 40 | 6.0 | 9.0 | 0.00 | 0.00 | 0.00 | 62 | 1016.0 |
| 20260510095237 | 61 | 34 | 7.0 | 9.0 | 0.00 | 0.00 | 0.00 | 62 | 1016.0 |
| 20260510094737 | 61 | 42 | 7.0 | 9.0 | 0.00 | 0.00 | 0.00 | 62 | 1016.0 |
| 20260510094237 | 61 | 39 | 7.0 | 10.0 | 0.00 | 0.00 | 0.00 | 62 | 1016.0 |
| 20260510093738 | 62 | 42 | 7.0 | 9.0 | 0.00 | 0.00 | 0.00 | 62 | 1016.0 |
| 20260510093237 | 62 | 34 | 6.0 | 8.0 | 0.00 | 0.00 | 0.00 | 62 | 1016.0 |
| 20260510092737 | 62 | 41 | 7.0 | 9.0 | 0.00 | 0.00 | 0.00 | 62 | 1015.0 |
| 20260510092237 | 62 | 38 | 7.0 | 11.0 | 0.00 | 0.00 | 0.00 | 61 | 1015.0 |
| 20260510091737 | 62 | 36 | 8.0 | 11.0 | 0.00 | 0.00 | 0.00 | 61 | 1015.0 |
| 20260510091237 | 62 | 44 | 8.0 | 10.0 | 0.00 | 0.00 | 0.00 | 61 | 1015.0 |
| 20260510090737 | 62 | 42 | 8.0 | 9.0 | 0.00 | 0.00 | 0.00 | 61 | 1015.0 |
| 20260510090238 | 62 | 40 | 8.0 | 10.0 | 0.00 | 0.00 | 0.00 | 62 | 1015.0 |
| 20260510085738 | 62 | 36 | 9.0 | 12.0 | 0.00 | 0.00 | 0.00 | 61 | 1015.0 |
| 20260510085238 | 62 | 41 | 9.0 | 11.0 | 0.00 | 0.00 | 0.00 | 62 | 1015.0 |
| 20260510084737 | 62 | 40 | 8.0 | 9.0 | 0.00 | 0.00 | 0.00 | 62 | 1015.0 |
| 20260510084237 | 62 | 38 | 7.0 | 9.0 | 0.00 | 0.00 | 0.00 | 62 | 1015.0 |
| 20260510083737 | 62 | 39 | 7.0 | 10.0 | 0.00 | 0.00 | 0.00 | 62 | 1015.0 |
| 20260510083237 | 62 | 39 | 6.0 | 8.0 | 0.00 | 0.00 | 0.00 | 63 | 1015.0 |
| 20260510082738 | 63 | 43 | 6.0 | 9.0 | 0.00 | 0.00 | 0.00 | 62 | 1015.0 |
| 20260510082237 | 63 | 40 | 6.0 | 9.0 | 0.00 | 0.00 | 0.00 | 63 | 1015.0 |
| 20260510081737 | 63 | 44 | 7.0 | 10.0 | 0.00 | 0.00 | 0.00 | 63 | 1015.0 |
| 20260510081238 | 63 | 38 | 6.0 | 8.0 | 0.00 | 0.00 | 0.00 | 63 | 1015.0 |
| 20260510080737 | 63 | 42 | 7.0 | 11.0 | 0.00 | 0.00 | 0.00 | 63 | 1015.0 |
| 20260510080237 | 63 | 49 | 6.0 | 7.0 | 0.00 | 0.00 | 0.00 | 64 | 1015.0 |
| 20260510075738 | 63 | 43 | 6.0 | 11.0 | 0.00 | 0.00 | 0.00 | 64 | 1015.0 |
| 20260510075237 | 64 | 39 | 5.0 | 7.0 | 0.00 | 0.00 | 0.00 | 64 | 1015.0 |
| 20260510074737 | 64 | 37 | 7.0 | 12.0 | 0.00 | 0.00 | 0.00 | 64 | 1015.0 |
| 20260510074242 | 64 | 40 | 6.0 | 9.0 | 0.00 | 0.00 | 0.00 | 64 | 1015.0 |
| 20260510073738 | 64 | 41 | 5.0 | 10.0 | 0.00 | 0.00 | 0.00 | 64 | 1015.0 |
| 20260510073237 | 64 | 43 | 6.0 | 9.0 | 0.00 | 0.00 | 0.00 | 64 | 1014.0 |
| 20260510072737 | 64 | 47 | 6.0 | 11.0 | 0.00 | 0.00 | 0.00 | 64 | 1014.0 |
| 20260510072237 | 64 | 46 | 6.0 | 11.0 | 0.00 | 0.00 | 0.00 | 63 | 1015.0 |
| 20260510071737 | 65 | 43 | 6.0 | 8.0 | 0.00 | 0.00 | 0.00 | 62 | 1015.0 |
| 20260510071237 | 65 | 45 | 5.0 | 6.0 | 0.00 | 0.00 | 0.00 | 62 | 1014.0 |
| 20260510070737 | 65 | 42 | 5.0 | 7.0 | 0.00 | 0.00 | 0.00 | 61 | 1014.0 |
| 20260510070237 | 65 | 43 | 4.0 | 5.0 | 0.00 | 0.00 | 0.00 | 61 | 1014.0 |
| 20260510065737 | 66 | 45 | 5.0 | 6.0 | 0.00 | 0.00 | 0.00 | 61 | 1014.0 |
| 20260510065237 | 66 | 42 | 4.0 | 5.0 | 0.00 | 0.00 | 0.00 | 60 | 1014.0 |
| 20260510064739 | 66 | 45 | 4.0 | 5.0 | 0.00 | 0.00 | 0.00 | 60 | 1014.0 |
| 20260510064237 | 66 | 46 | 4.0 | 5.0 | 0.00 | 0.00 | 0.00 | 60 | 1014.0 |
| 20260510063737 | 67 | 51 | 4.0 | 5.0 | 0.00 | 0.00 | 0.00 | 59 | 1014.0 |
| 20260510063237 | 67 | 53 | 5.0 | 7.0 | 0.00 | 0.00 | 0.00 | 59 | 1014.0 |
| 20260510062737 | 67 | 57 | 7.0 | 9.0 | 0.00 | 0.00 | 0.00 | 58 | 1014.0 |
| 20260510062237 | 67 | 62 | 6.0 | 8.0 | 0.00 | 0.00 | 0.00 | 58 | 1014.0 |
| 20260510061737 | 67 | 49 | 6.0 | 8.0 | 0.00 | 0.00 | 0.00 | 58 | 1014.0 |
| 20260510061238 | 67 | 60 | 7.0 | 9.0 | 0.00 | 0.00 | 0.00 | 58 | 1014.0 |
| 20260510060737 | 67 | 55 | 6.0 | 9.0 | 0.00 | 0.00 | 0.00 | 58 | 1014.0 |
| 20260510060237 | 67 | 50 | 6.0 | 9.0 | 0.00 | 0.00 | 0.00 | 58 | 1014.0 |
| 20260510055737 | 67 | 54 | 8.0 | 9.0 | 0.00 | 0.00 | 0.00 | 59 | 1013.0 |
| 20260510055237 | 67 | 46 | 6.0 | 9.0 | 0.00 | 0.00 | 0.00 | 58 | 1013.0 |
| 20260510054738 | 67 | 45 | 7.0 | 10.0 | 0.00 | 0.00 | 0.00 | 58 | 1013.0 |
| 20260510054237 | 68 | 45 | 7.0 | 9.0 | 0.00 | 0.00 | 0.00 | 58 | 1013.0 |
| 20260510053737 | 68 | 45 | 6.0 | 8.0 | 0.00 | 0.00 | 0.00 | 58 | 1013.0 |
| 20260510053237 | 68 | 43 | 6.0 | 8.0 | 0.00 | 0.00 | 0.00 | 57 | 1013.0 |
| 20260510052737 | 68 | 43 | 7.0 | 9.0 | 0.00 | 0.00 | 0.00 | 57 | 1013.0 |
| 20260510052238 | 68 | 46 | 5.0 | 6.0 | 0.00 | 0.00 | 0.00 | 58 | 1013.0 |
| 20260510051737 | 68 | 43 | 7.0 | 9.0 | 0.00 | 0.00 | 0.00 | 58 | 1013.0 |
| 20260510051237 | 68 | 40 | 6.0 | 6.0 | 0.00 | 0.00 | 0.00 | 57 | 1013.0 |
| 20260510050737 | 68 | 37 | 6.0 | 7.0 | 0.00 | 0.00 | 0.00 | 57 | 1013.0 |
| 20260510050237 | 68 | 43 | 6.0 | 9.0 | 0.00 | 0.00 | 0.00 | 57 | 1013.0 |
| 20260510045737 | 69 | 44 | 5.0 | 7.0 | 0.00 | 0.00 | 0.01 | 58 | 1013.0 |
| 20260510045237 | 69 | 43 | 5.0 | 9.0 | 0.00 | 0.00 | 0.01 | 57 | 1013.0 |
| 20260510044737 | 69 | 36 | 4.0 | 5.0 | 0.00 | 0.00 | 0.01 | 57 | 1013.0 |
| 20260510044237 | 69 | 32 | 4.0 | 9.0 | 0.00 | 0.00 | 0.01 | 56 | 1013.0 |
| 20260510043737 | 69 | 40 | 4.0 | 8.0 | 0.00 | 0.00 | 0.01 | 57 | 1013.0 |
| 20260510043237 | 69 | 50 | 4.0 | 9.0 | 0.00 | 0.00 | 0.01 | 57 | 1012.0 |
| 20260510042737 | 69 | 40 | 2.0 | 4.0 | 0.00 | 0.00 | 0.01 | 57 | 1012.0 |
| 20260510042237 | 69 | 49 | 3.0 | 6.0 | 0.00 | 0.00 | 0.01 | 56 | 1012.0 |
| 20260510041738 | 70 | 46 | 2.0 | 4.0 | 0.00 | 0.00 | 0.01 | 57 | 1012.0 |
| 20260510041237 | 70 | 42 | 3.0 | 4.0 | 0.00 | 0.00 | 0.01 | 55 | 1012.0 |
| 20260510040737 | 70 | 38 | 3.0 | 6.0 | 0.00 | 0.00 | 0.01 | 56 | 1012.0 |
| 20260510040237 | 70 | 35 | 2.0 | 3.0 | 0.00 | 0.00 | 0.01 | 55 | 1012.0 |
| 20260510035737 | 70 | 44 | 3.0 | 4.0 | 0.00 | 0.00 | 0.01 | 54 | 1012.0 |
| 20260510035238 | 70 | 39 | 3.0 | 4.0 | 0.00 | 0.00 | 0.01 | 53 | 1013.0 |
| 20260510034737 | 70 | 26 | 2.0 | 5.0 | 0.00 | 0.00 | 0.01 | 53 | 1012.0 |
| 20260510034237 | 70 | 313 | 1.0 | 2.0 | 0.00 | 0.00 | 0.01 | 54 | 1012.0 |
| 20260510033737 | 70 | 315 | 1.0 | 2.0 | 0.00 | 0.00 | 0.01 | 56 | 1012.0 |
| 20260510033237 | 70 | 314 | 1.0 | 2.0 | 0.00 | 0.00 | 0.01 | 54 | 1012.0 |
| 20260510032737 | 70 | 313 | 1.0 | 2.0 | 0.00 | 0.00 | 0.01 | 53 | 1012.0 |
| 20260510032237 | 70 | 313 | 1.0 | 2.0 | 0.00 | 0.00 | 0.01 | 53 | 1012.0 |
| 20260510031737 | 71 | 315 | 2.0 | 2.0 | 0.00 | 0.00 | 0.01 | 53 | 1012.0 |
| 20260510031237 | 71 | 315 | 1.0 | 2.0 | 0.00 | 0.00 | 0.01 | 51 | 1012.0 |
| 20260510030737 | 71 | 314 | 2.0 | 3.0 | 0.00 | 0.00 | 0.01 | 51 | 1012.0 |
| 20260510030238 | 71 | 313 | 2.0 | 3.0 | 0.00 | 0.00 | 0.01 | 50 | 1012.0 |
| 20260510025737 | 71 | 314 | 3.0 | 4.0 | 0.00 | 0.00 | 0.03 | 49 | 1012.0 |
| 20260510025237 | 71 | 312 | 4.0 | 5.0 | 0.00 | 0.00 | 0.03 | 52 | 1012.0 |
| 20260510024737 | 71 | 312 | 3.0 | 4.0 | 0.00 | 0.00 | 0.03 | 52 | 1012.0 |
| 20260510024238 | 71 | 311 | 3.0 | 5.0 | 0.00 | 0.00 | 0.03 | 52 | 1012.0 |
| 20260510023737 | 71 | 305 | 3.0 | 4.0 | 0.00 | 0.00 | 0.03 | 52 | 1012.0 |
| 20260510023237 | 72 | 309 | 3.0 | 4.0 | 0.00 | 0.00 | 0.03 | 53 | 1011.0 |
| 20260510022738 | 72 | 307 | 2.0 | 4.0 | 0.00 | 0.00 | 0.03 | 53 | 1011.0 |
| 20260510022237 | 73 | 311 | 3.0 | 4.0 | 0.00 | 0.00 | 0.01 | 50 | 1011.0 |
| 20260510021737 | 73 | 312 | 3.0 | 4.0 | 0.00 | 0.00 | 0.01 | 50 | 1011.0 |
| 20260510021237 | 73 | 313 | 4.0 | 5.0 | 0.00 | 0.00 | 0.01 | 49 | 1011.0 |
| 20260510020737 | 73 | 313 | 3.0 | 5.0 | 0.00 | 0.00 | 0.01 | 46 | 1011.0 |
| 20260510020237 | 73 | 313 | 3.0 | 5.0 | 0.00 | 0.00 | 0.01 | 43 | 1011.0 |
| 20260510015737 | 73 | 311 | 4.0 | 5.0 | 0.00 | 0.00 | 0.01 | 45 | 1012.0 |
| 20260510015237 | 74 | 311 | 3.0 | 5.0 | 0.02 | 0.00 | 0.01 | 48 | 1012.0 |
| 20260510014737 | 75 | 308 | 4.0 | 5.0 | 0.05 | 0.00 | 0.00 | 44 | 1012.0 |
| 20260510014237 | 76 | 311 | 4.0 | 7.0 | 0.00 | 0.00 | 0.00 | 42 | 1012.0 |
| 20260510013737 | 78 | 308 | 5.0 | 9.0 | 0.00 | 0.00 | 0.00 | 38 | 1012.0 |
| 20260510013237 | 78 | 303 | 4.0 | 6.0 | 0.00 | 0.00 | 0.00 | 33 | 1012.0 |
| 20260510012737 | 78 | 304 | 4.0 | 6.0 | 0.00 | 0.00 | 0.00 | 35 | 1012.0 |
| 20260510012238 | 79 | 307 | 4.0 | 7.0 | 0.00 | 0.00 | 0.00 | 34 | 1011.0 |
| 20260510011737 | 80 | 303 | 4.0 | 6.0 | 0.00 | 0.00 | 0.00 | 32 | 1011.0 |
| 20260510011237 | 80 | 307 | 4.0 | 7.0 | 0.00 | 0.00 | 0.00 | 30 | 1011.0 |
| 20260510010738 | 80 | 305 | 4.0 | 7.0 | 0.00 | 0.00 | 0.00 | 30 | 1011.0 |
| 20260510010237 | 80 | 304 | 4.0 | 6.0 | 0.00 | 0.00 | 0.00 | 30 | 1010.0 |
| 20260510005738 | 81 | 306 | 5.0 | 6.0 | 0.00 | 0.00 | 0.00 | 31 | 1010.0 |
| 20260510005237 | 81 | 309 | 3.0 | 6.0 | 0.00 | 0.00 | 0.00 | 29 | 1010.0 |
| 20260510004737 | 81 | 305 | 4.0 | 5.0 | 0.00 | 0.00 | 0.00 | 30 | 1009.0 |
| 20260510004237 | 81 | 305 | 4.0 | 6.0 | 0.00 | 0.00 | 0.00 | 29 | 1009.0 |
| 20260510003737 | 81 | 308 | 3.0 | 6.0 | 0.00 | 0.00 | 0.00 | 29 | 1008.0 |
| 20260510003237 | 81 | 310 | 4.0 | 6.0 | 0.00 | 0.00 | 0.00 | 29 | 1008.0 |
| 20260510002737 | 82 | 304 | 4.0 | 5.0 | 0.00 | 0.00 | 0.00 | 29 | 1008.0 |
| 20260510002237 | 82 | 307 | 3.0 | 6.0 | 0.00 | 0.00 | 0.00 | 27 | 1008.0 |
| 20260510001737 | 83 | 306 | 3.0 | 5.0 | 0.00 | 0.00 | 0.00 | 27 | 1008.0 |
| 20260510001238 | 83 | 305 | 4.0 | 5.0 | 0.00 | 0.00 | 0.00 | 28 | 1008.0 |
| 20260510000737 | 84 | 307 | 4.0 | 6.0 | 0.00 | 0.00 | 0.00 | 27 | 1008.0 |
| 20260510000238 | 85 | 302 | 4.0 | 6.0 | 0.00 | 0.00 | 0.00 | 27 | 1008.0 |
| 20260509235737 | 86 | 303 | 4.0 | 6.0 | 0.00 | 0.00 | 0.00 | 25 | 1008.0 |
| 20260509235237 | 86 | 306 | 4.0 | 6.0 | 0.00 | 0.00 | 0.00 | 26 | 1008.0 |
| 20260509234739 | 86 | 303 | 4.0 | 6.0 | 0.00 | 0.00 | 0.00 | 27 | 1008.0 |
| 20260509234237 | 86 | 305 | 4.0 | 6.0 | 0.00 | 0.00 | 0.00 | 26 | 1008.0 |
| 20260509233737 | 87 | 308 | 4.0 | 5.0 | 0.00 | 0.00 | 0.00 | 26 | 1008.0 |
| 20260509233237 | 87 | 303 | 4.0 | 6.0 | 0.00 | 0.00 | 0.00 | 24 | 1008.0 |
| 20260509232737 | 86 | 306 | 4.0 | 6.0 | 0.00 | 0.00 | 0.00 | 26 | 1008.0 |
| 20260509232238 | 87 | 306 | 4.0 | 6.0 | 0.00 | 0.00 | 0.00 | 25 | 1008.0 |
| 20260509231737 | 88 | 307 | 4.0 | 7.0 | 0.00 | 0.00 | 0.00 | 25 | 1008.0 |
| 20260509231237 | 88 | 317 | 4.0 | 9.0 | 0.00 | 0.00 | 0.00 | 25 | 1008.0 |
| 20260509230740 | 88 | 311 | 4.0 | 5.0 | 0.00 | 0.00 | 0.00 | 25 | 1008.0 |
| 20260509230237 | 88 | 314 | 4.0 | 6.0 | 0.00 | 0.00 | 0.00 | 25 | 1008.0 |
| 20260509225737 | 88 | 314 | 6.0 | 9.0 | 0.00 | 0.00 | 0.00 | 25 | 1008.0 |
| 20260509225237 | 87 | 314 | 6.0 | 9.0 | 0.00 | 0.00 | 0.00 | 24 | 1008.0 |
| 20260509224738 | 87 | 305 | 3.0 | 5.0 | 0.00 | 0.00 | 0.00 | 24 | 1008.0 |
| 20260509224238 | 87 | 313 | 3.0 | 5.0 | 0.00 | 0.00 | 0.00 | 23 | 1008.0 |
| 20260509223737 | 87 | 314 | 4.0 | 5.0 | 0.00 | 0.00 | 0.00 | 23 | 1008.0 |
| 20260509223237 | 87 | 315 | 3.0 | 6.0 | 0.00 | 0.00 | 0.00 | 26 | 1008.0 |
| 20260509222738 | 87 | 319 | 4.0 | 11.0 | 0.00 | 0.00 | 0.00 | 25 | 1008.0 |
| 20260509222237 | 88 | 322 | 4.0 | 9.0 | 0.00 | 0.00 | 0.00 | 23 | 1008.0 |
| 20260509221737 | 87 | 309 | 3.0 | 4.0 | 0.00 | 0.00 | 0.00 | 27 | 1008.0 |
| 20260509221238 | 87 | 301 | 4.0 | 7.0 | 0.00 | 0.00 | 0.00 | 25 | 1008.0 |
| 20260509220738 | 88 | 310 | 2.0 | 4.0 | 0.00 | 0.00 | 0.00 | 26 | 1008.0 |
| 20260509220237 | 88 | 310 | 3.0 | 4.0 | 0.00 | 0.00 | 0.00 | 25 | 1008.0 |
| 20260509215738 | 88 | 313 | 3.0 | 6.0 | 0.00 | 0.00 | 0.00 | 25 | 1008.0 |
| 20260509215237 | 88 | 310 | 5.0 | 6.0 | 0.00 | 0.00 | 0.00 | 23 | 1008.0 |
| 20260509214737 | 88 | 318 | 2.0 | 3.0 | 0.00 | 0.00 | 0.00 | 24 | 1008.0 |
| 20260509214237 | 87 | 315 | 3.0 | 4.0 | 0.00 | 0.00 | 0.00 | 26 | 1008.0 |
| 20260509213738 | 88 | 317 | 4.0 | 6.0 | 0.00 | 0.00 | 0.00 | 24 | 1008.0 |
| 20260509213237 | 88 | 309 | 5.0 | 6.0 | 0.00 | 0.00 | 0.00 | 26 | 1008.0 |
| 20260509212737 | 88 | 303 | 4.0 | 5.0 | 0.00 | 0.00 | 0.00 | 26 | 1008.0 |
| 20260509212238 | 88 | 303 | 4.0 | 6.0 | 0.00 | 0.00 | 0.00 | 25 | 1008.0 |
| 20260509211737 | 88 | 307 | 4.0 | 6.0 | 0.00 | 0.00 | 0.00 | 26 | 1008.0 |
| 20260509211237 | 88 | 296 | 4.0 | 6.0 | 0.00 | 0.00 | 0.00 | 27 | 1008.0 |
| 20260509210737 | 88 | 289 | 4.0 | 5.0 | 0.00 | 0.00 | 0.00 | 24 | 1009.0 |
| 20260509210237 | 88 | 296 | 4.0 | 5.0 | 0.00 | 0.00 | 0.00 | 25 | 1009.0 |
| 20260509205737 | 88 | 296 | 4.0 | 5.0 | 0.00 | 0.00 | 0.00 | 26 | 1009.0 |
| 20260509205237 | 88 | 306 | 4.0 | 8.0 | 0.00 | 0.00 | 0.00 | 23 | 1009.0 |
| 20260509204737 | 88 | 306 | 4.0 | 6.0 | 0.00 | 0.00 | 0.00 | 26 | 1009.0 |
| 20260509204237 | 88 | 307 | 4.0 | 6.0 | 0.00 | 0.00 | 0.00 | 23 | 1009.0 |
| 20260509203738 | 87 | 309 | 4.0 | 5.0 | 0.00 | 0.00 | 0.00 | 25 | 1009.0 |
| 20260509203237 | 87 | 310 | 4.0 | 6.0 | 0.00 | 0.00 | 0.00 | 25 | 1009.0 |
| 20260509202737 | 86 | 310 | 4.0 | 5.0 | 0.00 | 0.00 | 0.00 | 27 | 1009.0 |
| 20260509202237 | 85 | 308 | 4.0 | 5.0 | 0.00 | 0.00 | 0.00 | 27 | 1009.0 |
| 20260509201737 | 85 | 330 | 4.0 | 7.0 | 0.00 | 0.00 | 0.00 | 27 | 1009.0 |
| 20260509201238 | 86 | 308 | 4.0 | 7.0 | 0.00 | 0.00 | 0.00 | 25 | 1009.0 |
| 20260509200738 | 86 | 310 | 4.0 | 5.0 | 0.00 | 0.00 | 0.00 | 27 | 1009.0 |
| 20260509200237 | 86 | 312 | 3.0 | 4.0 | 0.00 | 0.00 | 0.00 | 26 | 1009.0 |
| 20260509195737 | 85 | 305 | 2.0 | 6.0 | 0.00 | 0.00 | 0.00 | 28 | 1009.0 |
| 20260509195237 | 86 | 308 | 2.0 | 3.0 | 0.00 | 0.00 | 0.00 | 26 | 1009.0 |
| 20260509194737 | 85 | 318 | 2.0 | 3.0 | 0.00 | 0.00 | 0.00 | 26 | 1009.0 |
| 20260509194237 | 85 | 310 | 3.0 | 4.0 | 0.00 | 0.00 | 0.00 | 28 | 1010.0 |
| 20260509193737 | 85 | 319 | 4.0 | 11.0 | 0.00 | 0.00 | 0.00 | 28 | 1010.0 |
| 20260509193237 | 86 | 306 | 5.0 | 8.0 | 0.00 | 0.00 | 0.00 | 27 | 1010.0 |
| 20260509192737 | 86 | 314 | 4.0 | 5.0 | 0.00 | 0.00 | 0.00 | 27 | 1010.0 |
| 20260509192237 | 86 | 314 | 3.0 | 4.0 | 0.00 | 0.00 | 0.00 | 26 | 1010.0 |
| 20260509191738 | 86 | 312 | 4.0 | 6.0 | 0.00 | 0.00 | 0.00 | 29 | 1010.0 |
| 20260509191237 | 86 | 309 | 4.0 | 7.0 | 0.00 | 0.00 | 0.00 | 29 | 1010.0 |
| 20260509190737 | 85 | 308 | 4.0 | 7.0 | 0.00 | 0.00 | 0.00 | 28 | 1010.0 |
| 20260509190237 | 84 | 313 | 3.0 | 6.0 | 0.00 | 0.00 | 0.00 | 30 | 1010.0 |
| 20260509185738 | 84 | 320 | 5.0 | 21.0 | 0.00 | 0.00 | 0.00 | 27 | 1010.0 |
| 20260509185237 | 83 | 322 | 5.0 | 20.0 | 0.00 | 0.00 | 0.00 | 29 | 1010.0 |
| 20260509184737 | 83 | 303 | 5.0 | 7.0 | 0.00 | 0.00 | 0.00 | 28 | 1010.0 |
| 20260509184237 | 83 | 323 | 6.0 | 9.0 | 0.00 | 0.00 | 0.00 | 28 | 1010.0 |
| 20260509183738 | 84 | 6 | 9.0 | 14.0 | 0.00 | 0.00 | 0.00 | 28 | 1010.0 |
| 20260509183238 | 83 | 18 | 13.0 | 19.0 | 0.00 | 0.00 | 0.00 | 31 | 1010.0 |
| 20260509182737 | 83 | 8 | 7.0 | 15.0 | 0.00 | 0.00 | 0.00 | 28 | 1010.0 |
| 20260509182237 | 83 | 13 | 11.0 | 24.0 | 0.00 | 0.00 | 0.00 | 30 | 1010.0 |
| 20260509181737 | 83 | 12 | 12.0 | 25.0 | 0.00 | 0.00 | 0.00 | 29 | 1010.0 |
| 20260509181237 | 83 | 10 | 9.0 | 20.0 | 0.00 | 0.00 | 0.00 | 28 | 1011.0 |
| 20260509180737 | 83 | 22 | 11.0 | 19.0 | 0.00 | 0.00 | 0.00 | 28 | 1011.0 |
| 20260509180238 | 83 | 11 | 8.0 | 15.0 | 0.00 | 0.00 | 0.00 | 28 | 1011.0 |
| 20260509175737 | 82 | 348 | 9.0 | 16.0 | 0.00 | 0.00 | 0.00 | 28 | 1011.0 |
| 20260509175237 | 82 | 302 | 7.0 | 9.0 | 0.00 | 0.00 | 0.00 | 29 | 1011.0 |
| 20260509174737 | 82 | 318 | 9.0 | 13.0 | 0.00 | 0.00 | 0.00 | 29 | 1011.0 |
| 20260509174237 | 82 | 315 | 6.0 | 13.0 | 0.00 | 0.00 | 0.00 | 30 | 1011.0 |
| 20260509173739 | 82 | 304 | 5.0 | 10.0 | 0.00 | 0.00 | 0.00 | 30 | 1011.0 |
| 20260509173237 | 82 | 301 | 6.0 | 11.0 | 0.00 | 0.00 | 0.00 | 31 | 1011.0 |
| 20260509172737 | 82 | 312 | 7.0 | 22.0 | 0.00 | 0.00 | 0.00 | 32 | 1011.0 |
| 20260509172238 | 81 | 311 | 6.0 | 12.0 | 0.00 | 0.00 | 0.00 | 33 | 1011.0 |
| 20260509171737 | 81 | 309 | 4.0 | 8.0 | 0.00 | 0.00 | 0.00 | 33 | 1011.0 |
| 20260509171237 | 81 | 304 | 5.0 | 7.0 | 0.00 | 0.00 | 0.00 | 34 | 1011.0 |
| 20260509170737 | 80 | 307 | 4.0 | 6.0 | 0.00 | 0.00 | 0.00 | 33 | 1012.0 |
| 20260509170238 | 81 | 299 | 6.0 | 8.0 | 0.00 | 0.00 | 0.00 | 34 | 1012.0 |
| 20260509165745 | 81 | 299 | 4.0 | 7.0 | 0.00 | 0.00 | 0.00 | 34 | 1012.0 |
| 20260509165237 | 81 | 308 | 4.0 | 5.0 | 0.00 | 0.00 | 0.00 | 37 | 1012.0 |
| 20260509164737 | 80 | 309 | 4.0 | 5.0 | 0.00 | 0.00 | 0.00 | 35 | 1012.0 |
| 20260509164238 | 80 | 311 | 4.0 | 6.0 | 0.00 | 0.00 | 0.00 | 35 | 1012.0 |
| 20260509163737 | 80 | 295 | 5.0 | 8.0 | 0.00 | 0.00 | 0.00 | 34 | 1012.0 |
| 20260509163239 | 80 | 305 | 5.0 | 6.0 | 0.00 | 0.00 | 0.00 | 35 | 1012.0 |
| 20260509162737 | 79 | 307 | 4.0 | 6.0 | 0.00 | 0.00 | 0.00 | 34 | 1011.0 |
| 20260509162237 | 79 | 299 | 6.0 | 9.0 | 0.00 | 0.00 | 0.00 | 36 | 1011.0 |
| 20260509161737 | 79 | 305 | 5.0 | 7.0 | 0.00 | 0.00 | 0.00 | 37 | 1011.0 |
| 20260509161237 | 78 | 311 | 4.0 | 5.0 | 0.00 | 0.00 | 0.00 | 41 | 1012.0 |
| 20260509160737 | 78 | 312 | 4.0 | 6.0 | 0.00 | 0.00 | 0.00 | 43 | 1012.0 |
| 20260509160238 | 77 | 311 | 5.0 | 7.0 | 0.00 | 0.00 | 0.00 | 42 | 1012.0 |
| 20260509155737 | 77 | 310 | 5.0 | 7.0 | 0.00 | 0.00 | 0.00 | 43 | 1012.0 |
| 20260509155238 | 77 | 305 | 6.0 | 8.0 | 0.00 | 0.00 | 0.00 | 41 | 1012.0 |
| 20260509154737 | 76 | 310 | 4.0 | 5.0 | 0.00 | 0.00 | 0.00 | 44 | 1012.0 |
| 20260509154238 | 76 | 312 | 4.0 | 6.0 | 0.00 | 0.00 | 0.00 | 45 | 1012.0 |
| 20260509153737 | 76 | 312 | 4.0 | 6.0 | 0.00 | 0.00 | 0.00 | 46 | 1012.0 |
| 20260509153237 | 76 | 308 | 4.0 | 5.0 | 0.00 | 0.00 | 0.00 | 43 | 1012.0 |
| 20260509152737 | 75 | 312 | 4.0 | 4.0 | 0.00 | 0.00 | 0.00 | 44 | 1012.0 |
| 20260509152238 | 75 | 308 | 4.0 | 6.0 | 0.00 | 0.00 | 0.00 | 43 | 1012.0 |
| 20260509151739 | 76 | 308 | 4.0 | 8.0 | 0.00 | 0.00 | 0.00 | 43 | 1012.0 |
| 20260509151237 | 75 | 309 | 5.0 | 6.0 | 0.00 | 0.00 | 0.00 | 45 | 1012.0 |
| 20260509150738 | 75 | 311 | 4.0 | 5.0 | 0.00 | 0.00 | 0.00 | 45 | 1012.0 |
| 20260509150237 | 74 | 308 | 4.0 | 5.0 | 0.00 | 0.00 | 0.00 | 47 | 1011.0 |
| 20260509145739 | 74 | 300 | 5.0 | 8.0 | 0.00 | 0.00 | 0.00 | 47 | 1011.0 |
| 20260509145237 | 73 | 303 | 5.0 | 6.0 | 0.00 | 0.00 | 0.00 | 48 | 1011.0 |
| 20260509144737 | 72 | 312 | 4.0 | 6.0 | 0.00 | 0.00 | 0.00 | 52 | 1011.0 |
| 20260509144237 | 72 | 309 | 4.0 | 5.0 | 0.00 | 0.00 | 0.00 | 52 | 1011.0 |
| 20260509143737 | 71 | 307 | 4.0 | 5.0 | 0.00 | 0.00 | 0.00 | 51 | 1011.0 |
| 20260509143238 | 71 | 309 | 4.0 | 5.0 | 0.00 | 0.00 | 0.00 | 53 | 1011.0 |
| 20260509142737 | 70 | 307 | 4.0 | 5.0 | 0.00 | 0.00 | 0.00 | 57 | 1011.0 |
| 20260509142237 | 69 | 309 | 4.0 | 6.0 | 0.00 | 0.00 | 0.00 | 57 | 1011.0 |
| 20260509141737 | 69 | 304 | 4.0 | 5.0 | 0.00 | 0.00 | 0.00 | 59 | 1011.0 |
| 20260509141237 | 68 | 309 | 3.0 | 4.0 | 0.00 | 0.00 | 0.00 | 59 | 1011.0 |
| 20260509140737 | 68 | 308 | 4.0 | 5.0 | 0.00 | 0.00 | 0.00 | 61 | 1011.0 |
| 20260509140238 | 67 | 310 | 4.0 | 6.0 | 0.00 | 0.00 | 0.00 | 62 | 1011.0 |
| 20260509135737 | 66 | 304 | 4.0 | 5.0 | 0.00 | 0.00 | 0.00 | 62 | 1011.0 |
| 20260509135237 | 66 | 309 | 3.0 | 4.0 | 0.00 | 0.00 | 0.00 | 64 | 1011.0 |
| 20260509134737 | 65 | 308 | 4.0 | 5.0 | 0.00 | 0.00 | 0.00 | 65 | 1011.0 |
| 20260509134237 | 65 | 311 | 4.0 | 4.0 | 0.00 | 0.00 | 0.00 | 67 | 1011.0 |
| 20260509133737 | 64 | 308 | 4.0 | 5.0 | 0.00 | 0.00 | 0.00 | 67 | 1011.0 |
| 20260509133237 | 63 | 313 | 3.0 | 4.0 | 0.00 | 0.00 | 0.00 | 67 | 1011.0 |
| 20260509132738 | 62 | 309 | 2.0 | 4.0 | 0.00 | 0.00 | 0.00 | 71 | 1011.0 |